Time;durP1;ratioP1;P1;durP2;ratioP2;P2;SDS_P1;SDS_P2;PMS_P1;PMS_P2;Temp;Humidity;BMP_temperature;BMP_pressure;BME280_temperature;BME280_humidity;BME280_pressure;Samples;Min_cycle;Max_cycle;Signal;HPM_P1;HPM_P2
2023/05/20 00:01:32;;;;;;;4.18;0.57;;;11.90;99.90;;;;;;5055369;28;20112;-75
2023/05/20 00:04:01;;;;;;;14.48;1.15;;;11.80;99.90;;;;;;5055439;28;20029;-75
2023/05/20 00:06:26;;;;;;;3.22;0.68;;;11.60;99.90;;;;;;5055402;28;20029;-75
2023/05/20 00:08:52;;;;;;;5.20;0.63;;;11.80;99.90;;;;;;5037340;28;20475;-75
2023/05/20 00:11:17;;;;;;;1.23;0.63;;;11.80;99.90;;;;;;5055290;28;20495;-75
2023/05/20 00:13:43;;;;;;;3.35;0.25;;;11.80;99.90;;;;;;5055223;28;20033;-75
2023/05/20 00:16:08;;;;;;;4.85;0.47;;;11.80;99.90;;;;;;5037312;28;20024;-74
2023/05/20 00:18:34;;;;;;;3.88;0.73;;;11.80;99.90;;;;;;5055160;28;20059;-75
2023/05/20 00:20:59;;;;;;;7.88;0.50;;;11.80;99.90;;;;;;5055160;28;20531;-75
2023/05/20 00:23:25;;;;;;;6.85;1.10;;;13.70;99.90;;;;;;5055024;28;20041;-75
2023/05/20 00:25:50;;;;;;;3.47;0.50;;;11.80;99.90;;;;;;5055555;28;20017;-74
2023/05/20 00:28:16;;;;;;;2.70;0.55;;;11.80;99.90;;;;;;5036950;28;20014;-75
2023/05/20 00:30:42;;;;;;;6.07;0.80;;;11.80;99.90;;;;;;5055515;28;20456;-75
2023/05/20 00:33:07;;;;;;;2.47;0.77;;;11.80;99.90;;;;;;5055347;28;20052;-75
2023/05/20 00:35:33;;;;;;;6.63;0.47;;;11.90;99.90;;;;;;5054811;28;20028;-75
2023/05/20 00:37:59;;;;;;;4.53;1.15;;;11.90;99.90;;;;;;5036818;28;20025;-75
2023/05/20 00:40:24;;;;;;;4.60;0.55;;;12.20;99.90;;;;;;5036785;28;20025;-75
2023/05/20 00:42:50;;;;;;;3.78;0.60;;;11.90;99.90;;;;;;5055203;28;20399;-75
2023/05/20 00:45:16;;;;;;;5.78;0.82;;;11.80;99.90;;;;;;5036744;28;20049;-75
2023/05/20 00:47:42;;;;;;;4.68;1.15;;;11.70;99.90;;;;;;5054512;28;20029;-75
2023/05/20 00:50:09;;;;;;;3.97;0.75;;;11.70;99.90;;;;;;5054506;28;20040;-75
2023/05/20 00:52:36;;;;;;;6.93;1.35;;;11.70;99.90;;;;;;5054556;28;20052;-75
2023/05/20 00:55:02;;;;;;;2.85;0.60;;;11.70;99.90;;;;;;5054414;28;20075;-75
2023/05/20 00:57:27;;;;;;;5.30;0.98;;;11.90;99.90;;;;;;5036530;28;20373;-75
2023/05/20 00:59:53;;;;;;;7.05;1.02;;;11.60;99.90;;;;;;5054169;28;20036;-74
2023/05/20 01:02:19;;;;;;;1.23;0.40;;;11.60;99.90;;;;;;5054333;28;20024;-75
2023/05/20 01:04:46;;;;;;;4.57;0.90;;;11.60;99.90;;;;;;5053623;28;20018;-74
2023/05/20 01:07:13;;;;;;;4.88;0.55;;;11.60;99.90;;;;;;5054189;28;20017;-75
2023/05/20 01:09:39;;;;;;;4.60;0.73;;;11.60;99.90;;;;;;5054125;28;20499;-75
2023/05/20 01:12:16;;;;;;;4.20;0.85;;;11.60;99.90;;;;;;5054104;28;20060;-75
2023/05/20 01:14:47;;;;;;;2.53;0.68;;;11.50;99.90;;;;;;5036144;28;20029;-75
2023/05/20 01:17:16;;;;;;;4.05;0.70;;;11.60;99.90;;;;;;5053952;28;20028;-75
2023/05/20 01:19:43;;;;;;;;;;;11.60;99.90;;;;;;5054174;28;20053;-75
2023/05/20 01:22:11;;;;;;;3.80;1.15;;;11.60;99.90;;;;;;5054045;28;20382;-75
2023/05/20 01:24:40;;;;;;;4.35;1.15;;;11.60;99.90;;;;;;5053784;28;20040;-75
2023/05/20 01:27:09;;;;;;;4.93;1.42;;;13.00;99.90;;;;;;5035928;28;20021;-74
2023/05/20 01:29:35;;;;;;;6.97;1.23;;;11.60;99.90;;;;;;5053676;28;20047;-75
2023/05/20 01:32:04;;;;;;;5.40;1.23;;;11.60;99.90;;;;;;5053753;28;20025;-75
2023/05/20 01:34:30;;;;;;;;;;;11.50;99.90;;;;;;5054081;28;20490;-75
2023/05/20 01:36:56;;;;;;;9.05;1.20;;;11.50;99.90;;;;;;5053613;28;19905;-75
2023/05/20 01:39:23;;;;;;;5.00;1.00;;;11.50;99.90;;;;;;5054002;28;20027;-74
2023/05/20 01:41:50;;;;;;;5.50;1.23;;;11.40;99.90;;;;;;5053577;28;20025;-74
2023/05/20 01:44:15;;;;;;;6.65;0.88;;;11.40;99.90;;;;;;5053575;28;20529;-75
2023/05/20 01:46:41;;;;;;;7.82;1.27;;;11.40;99.90;;;;;;5053490;28;20057;-75
2023/05/20 01:49:06;;;;;;;8.55;1.05;;;11.30;99.90;;;;;;5035496;28;20017;-74
2023/05/20 01:51:34;;;;;;;6.00;1.15;;;11.30;99.90;;;;;;5035616;28;20036;-74
2023/05/20 01:53:59;;;;;;;15.57;1.60;;;11.30;99.90;;;;;;5035555;28;20032;-74
2023/05/20 01:56:25;;;;;;;5.40;1.25;;;11.30;99.90;;;;;;5053397;28;20033;-74
2023/05/20 01:58:50;;;;;;;4.68;1.20;;;11.20;99.90;;;;;;5053297;28;20029;-74
2023/05/20 02:01:16;;;;;;;1.30;0.55;;;11.20;99.90;;;;;;5053235;28;20036;-74
2023/05/20 02:03:41;;;;;;;5.95;1.40;;;11.30;99.90;;;;;;5053333;28;20391;-74
2023/05/20 02:06:07;;;;;;;4.32;1.08;;;11.50;99.90;;;;;;5053214;28;20479;-74
2023/05/20 02:08:32;;;;;;;3.00;1.30;;;11.20;99.90;;;;;;5053270;28;20499;-74
2023/05/20 02:10:58;;;;;;;5.57;1.08;;;11.20;99.90;;;;;;5053195;28;20485;-74
2023/05/20 02:13:23;;;;;;;5.72;1.10;;;11.20;99.90;;;;;;5053197;28;20020;-74
2023/05/20 02:15:50;;;;;;;2.25;0.90;;;11.30;99.90;;;;;;5053108;28;20028;-74
2023/05/20 02:18:17;;;;;;;4.78;1.30;;;11.30;99.90;;;;;;5052179;28;20033;-74
2023/05/20 02:20:42;;;;;;;6.93;1.17;;;11.30;99.90;;;;;;5035114;28;20556;-74
2023/05/20 02:23:08;;;;;;;4.60;0.88;;;11.20;99.90;;;;;;5053115;28;20033;-74
2023/05/20 02:25:34;;;;;;;5.07;0.88;;;11.30;99.90;;;;;;5035343;28;20025;-73
2023/05/20 02:27:59;;;;;;;3.00;0.50;;;11.30;99.90;;;;;;5052914;28;20021;-73
2023/05/20 02:30:26;;;;;;;3.17;0.88;;;11.20;99.90;;;;;;5035489;28;20029;-74
2023/05/20 02:32:51;;;;;;;3.17;0.90;;;12.70;99.90;;;;;;5053546;28;20021;-75
2023/05/20 02:35:17;;;;;;;3.05;0.60;;;11.30;99.90;;;;;;5035180;28;20013;-75
2023/05/20 02:37:43;;;;;;;4.90;1.27;;;11.40;99.90;;;;;;5052831;28;20410;-75
2023/05/20 02:40:09;;;;;;;6.13;0.75;;;11.40;99.90;;;;;;5052883;28;20021;-75
2023/05/20 02:42:35;;;;;;;3.85;0.65;;;11.40;99.90;;;;;;5035021;28;20070;-74
2023/05/20 02:45:01;;;;;;;3.47;1.52;;;11.40;99.90;;;;;;5053219;28;20092;-75
2023/05/20 02:47:27;;;;;;;8.43;1.73;;;12.10;99.90;;;;;;5035031;28;20017;-73
2023/05/20 02:49:53;;;;;;;4.55;1.55;;;11.50;99.90;;;;;;5052699;28;20071;-73
2023/05/20 02:52:19;;;;;;;9.02;1.45;;;11.50;99.90;;;;;;5053464;28;20032;-74
2023/05/20 02:54:45;;;;;;;6.68;1.92;;;11.40;99.90;;;;;;5053437;28;20029;-74
2023/05/20 02:57:11;;;;;;;5.47;1.25;;;11.40;99.90;;;;;;5052909;28;20060;-74
2023/05/20 02:59:36;;;;;;;3.38;0.70;;;11.30;99.90;;;;;;5052678;28;20028;-74
2023/05/20 03:02:02;;;;;;;4.70;0.82;;;11.30;99.90;;;;;;5052683;28;20024;-74
2023/05/20 03:04:27;;;;;;;4.85;0.63;;;11.30;99.90;;;;;;5034867;28;20020;-74
2023/05/20 03:06:56;;;;;;;3.58;1.02;;;11.30;99.90;;;;;;5052668;28;20013;-73
2023/05/20 03:09:23;;;;;;;3.10;0.85;;;11.20;99.90;;;;;;5053546;28;20147;-74
2023/05/20 03:11:48;;;;;;;4.85;0.90;;;11.20;99.90;;;;;;5034668;28;20030;-75
2023/05/20 03:14:14;;;;;;;4.53;1.27;;;11.20;99.90;;;;;;5052584;28;20021;-73
2023/05/20 03:16:39;;;;;;;5.75;1.38;;;11.10;99.90;;;;;;5034764;28;20024;-74
2023/05/20 03:19:05;;;;;;;5.93;1.08;;;11.10;99.90;;;;;;5052446;28;20024;-74
2023/05/20 03:21:31;;;;;;;5.45;2.15;;;11.10;99.90;;;;;;5052974;28;20037;-74
2023/05/20 03:23:56;;;;;;;3.35;1.08;;;10.90;99.90;;;;;;5052461;28;20017;-74
2023/05/20 03:26:22;;;;;;;10.55;1.60;;;10.90;99.90;;;;;;5034634;28;20488;-74
2023/05/20 03:28:48;;;;;;;6.13;1.08;;;10.90;99.90;;;;;;5053898;28;20025;-75
2023/05/20 03:31:13;;;;;;;7.32;1.92;;;10.80;99.90;;;;;;5056580;28;20031;-75
2023/05/20 03:33:39;;;;;;;4.68;1.13;;;10.80;99.90;;;;;;5056031;28;20476;-74
2023/05/20 03:36:05;;;;;;;8.35;1.17;;;10.70;99.90;;;;;;5056623;28;20104;-75
2023/05/20 03:38:31;;;;;;;4.28;0.98;;;10.60;99.90;;;;;;5055863;28;20391;-75
2023/05/20 03:40:56;;;;;;;5.15;0.93;;;10.60;99.90;;;;;;5056357;28;20025;-75
2023/05/20 03:43:22;;;;;;;7.47;0.95;;;10.50;99.90;;;;;;5055844;28;20056;-74
2023/05/20 03:45:47;;;;;;;4.80;1.02;;;10.50;99.90;;;;;;5055826;28;20028;-74
2023/05/20 03:48:13;;;;;;;5.38;1.92;;;10.40;99.90;;;;;;5055706;28;20029;-74
2023/05/20 03:50:38;;;;;;;9.00;1.55;;;10.40;99.90;;;;;;5056291;28;20029;-73
2023/05/20 03:53:04;;;;;;;4.60;1.20;;;10.30;99.90;;;;;;5056181;28;20037;-74
2023/05/20 03:55:31;;;;;;;5.13;1.63;;;10.30;99.90;;;;;;5056182;28;20025;-75
2023/05/20 03:57:56;;;;;;;4.55;1.27;;;10.30;99.90;;;;;;5055565;28;20047;-73
2023/05/20 04:00:22;;;;;;;4.38;1.20;;;10.20;99.90;;;;;;5055511;28;20021;-74
2023/05/20 04:02:47;;;;;;;10.18;2.45;;;10.30;99.90;;;;;;5056108;28;20506;-73
2023/05/20 04:05:13;;;;;;;6.32;1.60;;;10.30;99.90;;;;;;5037642;28;20116;-74
2023/05/20 04:07:38;;;;;;;7.43;2.30;;;10.30;99.90;;;;;;5055250;28;20108;-74
2023/05/20 04:10:05;;;;;;;8.15;1.50;;;10.40;99.90;;;;;;5055872;28;20025;-74
2023/05/20 04:12:31;;;;;;;5.80;1.30;;;10.40;99.90;;;;;;5037393;28;20028;-76
2023/05/20 04:15:00;;;;;;;4.22;1.60;;;10.40;99.90;;;;;;5055179;28;20013;-73
2023/05/20 04:17:29;;;;;;;6.82;1.30;;;10.50;99.90;;;;;;5055239;28;20395;-75
2023/05/20 04:19:56;;;;;;;4.63;0.98;;;10.50;99.90;;;;;;5055170;28;20480;-73
2023/05/20 04:22:22;;;;;;;4.63;1.25;;;10.60;99.90;;;;;;5055153;28;20013;-74
2023/05/20 04:24:48;;;;;;;6.57;2.05;;;10.60;99.90;;;;;;5055238;28;20021;-75
2023/05/20 04:27:15;;;;;;;10.23;1.40;;;10.60;99.90;;;;;;5055030;28;20021;-76
2023/05/20 04:29:44;;;;;;;4.70;1.63;;;10.70;99.90;;;;;;5054899;28;20507;-76
2023/05/20 04:32:13;;;;;;;7.65;2.00;;;10.80;99.90;;;;;;5037031;28;20048;-77
2023/05/20 04:34:39;;;;;;;;;;;10.90;99.90;;;;;;5055379;28;20044;-76
2023/05/20 04:37:06;;;;;;;10.57;1.73;;;11.00;99.90;;;;;;5054825;28;19934;-75
2023/05/20 04:39:32;;;;;;;7.68;1.77;;;11.10;99.90;;;;;;5054034;28;20149;-75
2023/05/20 04:41:58;;;;;;;5.13;1.10;;;11.20;99.90;;;;;;5054428;28;20064;-75
2023/05/20 04:44:25;;;;;;;3.38;1.10;;;11.30;99.90;;;;;;5054616;28;20024;-76
2023/05/20 04:46:51;;;;;;;10.50;2.58;;;11.40;99.90;;;;;;5054401;28;20043;-76
2023/05/20 04:49:17;;;;;;;6.07;1.48;;;11.60;99.90;;;;;;5054279;28;20033;-77
2023/05/20 04:51:42;;;;;;;9.20;1.00;;;11.70;99.90;;;;;;5036372;28;20380;-77
2023/05/20 04:54:08;;;;;;;5.05;1.38;;;11.80;99.90;;;;;;5037312;28;20017;-78
2023/05/20 04:56:34;;;;;;;4.07;1.45;;;12.00;99.90;;;;;;5056280;28;20032;-79
2023/05/20 04:59:00;;;;;;;4.65;1.70;;;12.10;99.90;;;;;;5055680;28;20033;-77
2023/05/20 05:01:25;;;;;;;9.82;1.08;;;12.20;99.90;;;;;;5053649;28;20031;-77
2023/05/20 05:03:51;;;;;;;4.85;1.40;;;12.70;99.90;;;;;;5054286;28;20078;-76
2023/05/20 05:06:17;;;;;;;13.57;1.73;;;12.30;99.90;;;;;;5053893;28;20069;-77
2023/05/20 05:08:42;;;;;;;4.63;1.17;;;12.30;99.90;;;;;;5054297;28;20032;-76
2023/05/20 05:11:08;;;;;;;5.57;1.33;;;12.40;99.90;;;;;;5053946;28;20021;-75
2023/05/20 05:13:33;;;;;;;4.45;2.25;;;12.40;99.90;;;;;;5054146;28;20040;-75
2023/05/20 05:16:00;;;;;;;10.80;1.70;;;12.40;99.90;;;;;;5054607;28;20033;-75
2023/05/20 05:18:26;;;;;;;3.38;1.00;;;12.60;99.90;;;;;;5053907;28;20036;-75
2023/05/20 05:21:05;;;;;;;8.50;1.00;;;12.60;99.90;;;;;;5054394;28;20458;-75
2023/05/20 05:23:31;;;;;;;6.40;1.33;;;12.70;99.90;;;;;;5036077;28;20025;-75
2023/05/20 05:25:57;;;;;;;4.22;1.70;;;12.80;99.90;;;;;;5053744;28;20029;-75
2023/05/20 05:28:23;;;;;;;3.50;0.75;;;13.00;99.90;;;;;;5053695;28;20395;-75
2023/05/20 05:30:49;;;;;;;5.28;1.20;;;13.10;99.90;;;;;;5053734;28;20033;-75
2023/05/20 05:33:15;;;;;;;2.10;0.88;;;13.10;99.90;;;;;;5035875;28;20507;-75
2023/05/20 05:35:41;;;;;;;5.50;1.00;;;13.20;99.90;;;;;;5054304;28;20384;-75
2023/05/20 05:38:07;;;;;;;3.88;1.05;;;13.30;99.90;;;;;;5035665;28;20041;-75
2023/05/20 05:40:33;;;;;;;8.50;1.38;;;12.90;99.90;;;;;;5053519;28;20029;-75
2023/05/20 05:42:58;;;;;;;4.90;0.55;;;13.40;99.90;;;;;;5053526;28;20028;-75
2023/05/20 05:45:24;;;;;;;3.20;0.57;;;13.40;99.90;;;;;;5053393;28;20025;-75
2023/05/20 05:47:50;;;;;;;4.70;0.85;;;13.50;99.90;;;;;;5033284;28;20025;-75
2023/05/20 05:50:15;;;;;;;4.03;0.68;;;13.50;99.90;;;;;;5052110;28;20168;-75
2023/05/20 05:52:41;;;;;;;2.45;0.57;;;13.70;99.90;;;;;;5052769;28;20029;-75
2023/05/20 05:55:08;;;;;;;2.92;0.65;;;13.70;99.90;;;;;;5051854;28;20048;-75
2023/05/20 05:57:33;;;;;;;3.53;0.63;;;13.80;99.90;;;;;;5052624;28;20067;-75
2023/05/20 05:59:59;;;;;;;3.83;0.80;;;13.80;99.90;;;;;;5053148;28;20056;-75
2023/05/20 06:02:26;;;;;;;6.13;1.10;;;15.80;99.90;;;;;;5053148;28;20032;-75
2023/05/20 06:04:51;;;;;;;4.13;0.38;;;13.90;99.90;;;;;;5053157;28;20018;-75
2023/05/20 06:07:17;;;;;;;3.90;0.65;;;15.30;99.90;;;;;;5053207;28;20535;-75
2023/05/20 06:09:43;;;;;;;2.47;0.47;;;14.20;99.90;;;;;;5053036;28;20078;-75
2023/05/20 06:12:09;;;;;;;3.60;1.17;;;14.20;99.90;;;;;;5053066;28;20472;-75
2023/05/20 06:14:34;;;;;;;5.18;0.57;;;14.30;99.90;;;;;;5053175;28;20029;-75
2023/05/20 06:17:01;;;;;;;4.35;0.45;;;14.30;99.90;;;;;;5035143;28;20021;-75
2023/05/20 06:19:27;;;;;;;1.90;0.88;;;14.40;99.90;;;;;;5052829;28;20025;-75
2023/05/20 06:21:52;;;;;;;3.15;0.50;;;14.60;99.90;;;;;;5052929;28;20484;-75
2023/05/20 06:24:18;;;;;;;3.47;0.90;;;15.30;99.90;;;;;;5053011;28;20068;-75
2023/05/20 06:26:44;;;;;;;5.25;1.00;;;15.80;99.90;;;;;;5052964;28;20017;-75
2023/05/20 06:29:10;;;;;;;3.42;0.38;;;14.80;99.90;;;;;;5052803;28;20051;-75
2023/05/20 06:31:36;;;;;;;3.60;0.65;;;14.90;99.90;;;;;;5052954;28;20021;-74
2023/05/20 06:34:02;;;;;;;4.03;0.50;;;;;;;;;;5035288;28;20075;-75
2023/05/20 06:36:28;;;;;;;1.08;0.43;;;15.10;99.90;;;;;;5035004;28;20037;-75
2023/05/20 06:38:53;;;;;;;5.45;0.80;;;15.20;99.90;;;;;;5052901;28;20050;-75
2023/05/20 06:41:20;;;;;;;3.88;0.95;;;15.30;99.90;;;;;;5052804;28;20058;-75
2023/05/20 06:43:46;;;;;;;2.85;0.40;;;15.40;99.90;;;;;;5052850;28;20021;-75
2023/05/20 06:46:12;;;;;;;1.95;0.40;;;15.70;99.90;;;;;;5052773;28;20021;-75
2023/05/20 06:48:38;;;;;;;6.85;0.50;;;15.70;99.90;;;;;;5052644;28;20395;-75
2023/05/20 06:51:06;;;;;;;3.30;1.33;;;15.70;99.90;;;;;;5052810;28;20025;-76
2023/05/20 06:53:32;;;;;;;3.42;0.70;;;15.80;99.90;;;;;;5052810;28;20017;-75
2023/05/20 06:55:58;;;;;;;6.50;1.33;;;15.80;99.90;;;;;;5052763;28;20035;-75
2023/05/20 06:58:23;;;;;;;4.63;1.10;;;15.90;99.90;;;;;;5052763;28;20056;-77
2023/05/20 07:00:49;;;;;;;2.60;0.50;;;16.00;99.90;;;;;;5034754;28;20032;-77
2023/05/20 07:03:14;;;;;;;2.33;0.70;;;16.00;99.90;;;;;;5053670;28;20028;-77
2023/05/20 07:05:40;;;;;;;2.33;0.57;;;16.20;99.90;;;;;;5057364;28;20055;-77
2023/05/20 07:08:05;;;;;;;2.42;0.47;;;16.30;99.90;;;;;;5038522;28;20029;-77
2023/05/20 07:10:31;;;;;;;2.13;0.68;;;16.30;99.90;;;;;;5056431;28;20055;-75
2023/05/20 07:12:56;;;;;;;3.13;0.70;;;17.30;99.90;;;;;;5038518;28;20159;-74
2023/05/20 07:15:22;;;;;;;1.58;0.35;;;16.40;99.90;;;;;;5038461;28;20059;-75
2023/05/20 07:17:48;;;;;;;4.30;0.80;;;16.60;99.90;;;;;;5056809;28;20474;-75
2023/05/20 07:20:13;;;;;;;2.33;0.30;;;16.60;99.90;;;;;;5056183;28;20036;-74
2023/05/20 07:22:39;;;;;;;3.55;0.63;;;16.80;99.90;;;;;;5056231;28;20017;-74
2023/05/20 07:25:05;;;;;;;3.60;0.38;;;16.80;99.90;;;;;;5055991;28;20021;-75
2023/05/20 07:27:30;;;;;;;1.80;0.20;;;16.90;99.90;;;;;;5055975;28;20025;-75
2023/05/20 07:29:56;;;;;;;3.70;0.57;;;17.10;99.90;;;;;;5038051;28;20036;-77
2023/05/20 07:32:21;;;;;;;4.25;0.68;;;17.40;99.90;;;;;;5056078;28;20035;-75
2023/05/20 07:34:47;;;;;;;3.15;0.30;;;17.10;99.90;;;;;;5056269;28;20025;-75
2023/05/20 07:37:13;;;;;;;2.38;0.38;;;17.20;99.90;;;;;;5056074;28;20032;-75
2023/05/20 07:39:39;;;;;;;1.27;0.35;;;17.30;99.90;;;;;;5055867;28;20075;-75
2023/05/20 07:42:04;;;;;;;2.58;0.40;;;17.40;99.90;;;;;;5055798;28;20427;-75
2023/05/20 07:44:30;;;;;;;1.45;0.50;;;18.40;99.90;;;;;;5055687;28;20021;-75
2023/05/20 07:46:55;;;;;;;1.60;0.40;;;17.60;99.90;;;;;;5037714;28;20075;-75
2023/05/20 07:49:21;;;;;;;1.30;0.38;;;17.70;99.90;;;;;;5036810;28;20079;-74
2023/05/20 07:51:47;;;;;;;1.38;0.50;;;17.80;99.90;;;;;;5054446;28;20090;-75
2023/05/20 07:54:14;;;;;;;5.00;0.68;;;17.90;99.90;;;;;;5054334;28;20039;-75
2023/05/20 07:56:39;;;;;;;1.45;0.28;;;17.80;99.90;;;;;;5054326;28;20025;-75
2023/05/20 07:59:05;;;;;;;2.92;0.32;;;18.10;99.90;;;;;;5054468;28;20437;-74
2023/05/20 08:01:31;;;;;;;3.17;0.35;;;18.10;99.90;;;;;;5054266;28;20027;-74
2023/05/20 08:03:56;;;;;;;4.07;0.60;;;18.20;99.90;;;;;;5054284;28;20051;-75
2023/05/20 08:06:25;;;;;;;2.40;0.38;;;18.20;99.90;;;;;;5054004;28;20027;-75
2023/05/20 08:08:52;;;;;;;6.45;0.63;;;18.40;99.90;;;;;;5036331;28;20017;-75
2023/05/20 08:11:18;;;;;;;0.80;0.17;;;18.50;99.90;;;;;;5054057;28;20365;-75
2023/05/20 08:13:44;;;;;;;1.23;0.13;;;18.50;99.90;;;;;;5054078;28;20021;-75
2023/05/20 08:16:09;;;;;;;1.42;0.30;;;19.00;99.90;;;;;;5053983;28;20033;-75
2023/05/20 08:18:38;;;;;;;4.32;0.40;;;18.70;99.90;;;;;;5054263;28;20021;-75
2023/05/20 08:21:07;;;;;;;2.15;0.20;;;18.80;99.90;;;;;;5054488;28;20086;-75
2023/05/20 08:23:34;;;;;;;1.33;0.43;;;18.90;99.90;;;;;;5053770;28;20393;-75
2023/05/20 08:26:02;;;;;;;4.20;0.75;;;18.90;99.90;;;;;;5053987;28;20021;-75
2023/05/20 08:28:29;;;;;;;3.22;0.25;;;19.00;99.90;;;;;;5035753;28;20017;-75
2023/05/20 08:30:54;;;;;;;4.25;0.20;;;19.00;99.90;;;;;;5053704;28;20036;-75
2023/05/20 08:33:21;;;;;;;1.27;0.10;;;19.10;99.90;;;;;;5035902;28;20029;-75
2023/05/20 08:35:47;;;;;;;2.00;0.10;;;19.20;99.90;;;;;;5053683;28;20024;-75
2023/05/20 08:38:13;;;;;;;1.25;0.20;;;19.20;99.90;;;;;;5053686;28;20033;-75
2023/05/20 08:40:39;;;;;;;1.63;0.20;;;19.20;99.90;;;;;;5053515;28;20400;-75
2023/05/20 08:43:05;;;;;;;4.03;0.32;;;19.30;99.90;;;;;;5053868;28;20025;-75
2023/05/20 08:45:32;;;;;;;1.58;0.15;;;19.30;98.90;;;;;;5053787;28;20036;-75
2023/05/20 08:47:57;;;;;;;0.83;0.10;;;19.40;98.00;;;;;;5015689;28;1075842;-76
2023/05/20 08:50:23;;;;;;;0.52;0.10;;;19.40;98.20;;;;;;5055038;28;20071;-75
2023/05/20 08:52:49;;;;;;;1.02;0.32;;;20.30;97.80;;;;;;5054599;28;20033;-75
2023/05/20 08:55:21;;;;;;;22.63;0.40;;;19.30;97.10;;;;;;5054750;28;20025;-75
2023/05/20 08:57:53;;;;;;;1.98;0.10;;;19.10;96.80;;;;;;5054493;28;20028;-75
2023/05/20 09:00:22;;;;;;;2.20;0.10;;;20.00;97.20;;;;;;5054376;28;20024;-75
2023/05/20 09:02:47;;;;;;;2.30;0.10;;;19.20;96.20;;;;;;5054689;28;20021;-75
2023/05/20 09:05:13;;;;;;;0.32;0.00;;;19.50;95.70;;;;;;5054275;28;20476;-75
2023/05/20 09:07:41;;;;;;;0.50;0.20;;;19.30;95.60;;;;;;5054255;28;20017;-75
2023/05/20 09:10:08;;;;;;;1.02;0.00;;;19.20;94.50;;;;;;5054141;28;20128;-75
2023/05/20 09:12:34;;;;;;;0.20;0.00;;;19.10;93.60;;;;;;5054104;28;20025;-75
2023/05/20 09:15:00;;;;;;;4.78;0.30;;;19.00;94.80;;;;;;5054089;28;20059;-75
2023/05/20 09:17:25;;;;;;;0.70;0.10;;;19.40;95.10;;;;;;5036224;28;20437;-75
2023/05/20 09:19:52;;;;;;;1.42;0.10;;;19.20;93.70;;;;;;5053754;28;20055;-75
2023/05/20 09:22:28;;;;;;;0.50;0.00;;;19.10;95.00;;;;;;5053849;28;20100;-75
2023/05/20 09:24:54;;;;;;;1.00;0.13;;;19.10;95.40;;;;;;5035913;28;20051;-75
2023/05/20 09:27:20;;;;;;;0.20;0.00;;;19.00;94.00;;;;;;5053604;28;20027;-75
2023/05/20 09:29:50;;;;;;;0.50;0.30;;;19.00;91.20;;;;;;5053797;28;20164;-75
2023/05/20 09:32:16;;;;;;;0.30;0.00;;;19.20;92.20;;;;;;5053677;28;20444;-75
2023/05/20 09:34:44;;;;;;;0.20;0.00;;;19.10;92.80;;;;;;5035813;28;20392;-74
2023/05/20 09:37:11;;;;;;;1.40;0.32;;;19.10;93.30;;;;;;5053697;28;20539;-75
2023/05/20 09:39:56;;;;;;;2.28;0.30;;;19.30;92.60;;;;;;5053645;28;20028;-75
2023/05/20 09:42:27;;;;;;;0.65;0.00;;;19.30;93.00;;;;;;5054067;28;20384;-75
2023/05/20 09:44:55;;;;;;;0.55;0.00;;;19.60;93.50;;;;;;5035922;28;20116;-75
2023/05/20 09:47:23;;;;;;;1.50;0.00;;;19.60;93.70;;;;;;5053855;28;20022;-75
2023/05/20 09:49:51;;;;;;;3.20;0.10;;;20.00;91.10;;;;;;5053542;28;20492;-75
2023/05/20 09:52:17;;;;;;;0.77;0.10;;;20.00;90.30;;;;;;5053335;28;20074;-75
2023/05/20 09:54:43;;;;;;;0.32;0.00;;;20.00;90.50;;;;;;5053312;28;20096;-75
2023/05/20 09:57:09;;;;;;;4.78;0.55;;;20.00;90.50;;;;;;5053378;28;20403;-75
2023/05/20 09:59:37;;;;;;;2.00;0.35;;;19.80;90.80;;;;;;5053148;28;20017;-75
2023/05/20 10:02:04;;;;;;;3.80;0.25;;;19.80;89.00;;;;;;5053262;28;20117;-75
2023/05/20 10:04:31;;;;;;;2.97;0.30;;;19.90;90.10;;;;;;5053294;28;20075;-75
2023/05/20 10:07:38;;;;;;;1.05;0.00;;;20.30;90.90;;;;;;5035262;28;20058;-74
2023/05/20 10:10:36;;;;;;;0.90;0.00;;;20.80;82.30;;;;;;5011126;28;20117;-74
2023/05/20 10:13:29;;;;;;;2.20;0.00;;;21.00;77.10;;;;;;5053264;28;20025;-75
2023/05/20 10:16:07;;;;;;;0.08;0.00;;;21.00;78.90;;;;;;5053071;28;20260;-75
2023/05/20 10:18:35;;;;;;;0.68;0.00;;;21.10;78.70;;;;;;5053137;28;20103;-75
2023/05/20 10:21:01;;;;;;;1.65;0.10;;;21.10;78.20;;;;;;5035319;28;20032;-75
2023/05/20 10:23:29;;;;;;;1.30;0.15;;;21.10;77.50;;;;;;5035581;28;20376;-75
2023/05/20 10:25:56;;;;;;;0.35;0.00;;;21.00;77.20;;;;;;5051677;28;20028;-74
2023/05/20 10:28:29;;;;;;;0.10;0.10;;;21.40;74.00;;;;;;5034948;28;20032;-74
2023/05/20 10:30:55;;;;;;;2.25;0.17;;;21.50;75.10;;;;;;5053038;28;20076;-75
2023/05/20 10:33:21;;;;;;;1.77;0.00;;;21.80;76.10;;;;;;5035110;28;20025;-77
2023/05/20 10:35:50;;;;;;;0.00;0.00;;;22.50;73.20;;;;;;5053076;28;20025;-77
2023/05/20 10:38:15;;;;;;;2.00;0.00;;;22.40;70.90;;;;;;5053520;28;20021;-77
2023/05/20 10:40:41;;;;;;;1.25;0.00;;;22.60;70.70;;;;;;5039047;28;20071;-75
2023/05/20 10:43:11;;;;;;;0.82;0.00;;;22.90;70.60;;;;;;5057833;28;20032;-75
2023/05/20 10:45:48;;;;;;;2.03;0.13;;;23.20;70.30;;;;;;5038942;28;20017;-74
2023/05/20 10:48:30;;;;;;;0.15;0.00;;;23.40;67.20;;;;;;5039226;28;20021;-75
2023/05/20 10:51:02;;;;;;;1.95;0.00;;;23.60;65.00;;;;;;5056822;28;20036;-75
2023/05/20 10:53:30;;;;;;;2.03;0.22;;;23.90;66.10;;;;;;5056867;28;20053;-75
2023/05/20 10:55:55;;;;;;;1.45;0.15;;;23.90;65.10;;;;;;5056864;28;20025;-75
2023/05/20 10:58:23;;;;;;;1.23;0.00;;;23.80;63.40;;;;;;5056649;28;20029;-75
2023/05/20 11:00:52;;;;;;;3.23;0.40;;;23.80;63.90;;;;;;5056726;28;20021;-74
2023/05/20 11:03:20;;;;;;;4.13;0.00;;;24.00;60.80;;;;;;5056717;28;20059;-75
2023/05/20 11:05:46;;;;;;;;;;;23.90;60.80;;;;;;5057193;28;20071;-75
2023/05/20 11:08:13;;;;;;;0.30;0.00;;;23.80;60.10;;;;;;5038611;28;19905;-75
2023/05/20 11:10:38;;;;;;;4.20;0.60;;;23.70;59.30;;;;;;5038730;28;20029;-75
2023/05/20 11:13:04;;;;;;;3.97;0.10;;;23.50;61.50;;;;;;5057164;28;20104;-75
2023/05/20 11:15:37;;;;;;;0.28;0.00;;;23.30;61.70;;;;;;5056598;28;20064;-74
2023/05/20 11:18:03;;;;;;;0.47;0.00;;;23.40;61.70;;;;;;5038559;28;20495;-74
2023/05/20 11:20:33;;;;;;;0.45;0.15;;;23.30;61.30;;;;;;5038464;28;20568;-75
2023/05/20 11:23:00;;;;;;;1.65;0.10;;;23.20;61.70;;;;;;5038549;28;20480;-75
2023/05/20 11:25:27;;;;;;;0.85;0.03;;;23.00;63.10;;;;;;5056325;28;20017;-75
2023/05/20 11:27:53;;;;;;;0.15;0.00;;;23.20;62.70;;;;;;5056300;28;20427;-75
2023/05/20 11:30:19;;;;;;;0.25;0.00;;;23.20;63.70;;;;;;5056623;28;20017;-76
2023/05/20 11:33:01;;;;;;;0.52;0.30;;;23.50;61.60;;;;;;5056079;28;20369;-76
2023/05/20 11:35:29;;;;;;;1.05;0.00;;;24.00;61.30;;;;;;5056090;28;20538;-76
2023/05/20 11:37:57;;;;;;;2.72;0.00;;;24.20;61.00;;;;;;5055666;28;20055;-76
2023/05/20 11:40:24;;;;;;;2.13;0.00;;;24.30;60.50;;;;;;5055818;28;20039;-76
2023/05/20 11:42:56;;;;;;;1.88;0.00;;;24.30;59.70;;;;;;5056167;28;20024;-75
2023/05/20 11:45:22;;;;;;;1.45;0.00;;;24.20;58.80;;;;;;5056046;28;20030;-74
2023/05/20 11:48:05;;;;;;;0.82;0.00;;;24.10;59.70;;;;;;5055668;28;20088;-75
2023/05/20 11:50:48;;;;;;;0.82;0.00;;;24.10;59.60;;;;;;5037727;28;20067;-74
2023/05/20 11:53:19;;;;;;;0.85;0.10;;;23.70;59.90;;;;;;5055895;28;20025;-77
2023/05/20 11:55:53;;;;;;;2.20;0.20;;;23.50;60.60;;;;;;5056316;28;20104;-77
2023/05/20 11:58:24;;;;;;;2.78;0.00;;;23.40;60.80;;;;;;5037738;28;20128;-74
2023/05/20 12:00:50;;;;;;;0.03;0.00;;;23.40;61.20;;;;;;5037972;28;20028;-75
2023/05/20 12:03:16;;;;;;;0.30;0.00;;;23.50;61.50;;;;;;5055947;28;20051;-78
2023/05/20 12:05:42;;;;;;;0.30;0.00;;;23.80;60.90;;;;;;5055901;28;20380;-77
2023/05/20 12:08:08;;;;;;;1.17;0.00;;;24.30;60.00;;;;;;5055931;28;20025;-77
2023/05/20 12:10:35;;;;;;;0.22;0.00;;;24.40;61.00;;;;;;5038331;28;20496;-77
2023/05/20 12:13:02;;;;;;;3.80;0.08;;;24.30;58.90;;;;;;5055981;28;20021;-77
2023/05/20 12:15:28;;;;;;;0.20;0.00;;;24.20;58.60;;;;;;5055918;28;20373;-75
2023/05/20 12:17:53;;;;;;;1.17;0.10;;;23.60;59.80;;;;;;5055327;28;20078;-75
2023/05/20 12:20:22;;;;;;;0.32;0.00;;;23.90;61.50;;;;;;5037298;28;20423;-75
2023/05/20 12:22:50;;;;;;;1.42;0.00;;;23.90;61.50;;;;;;5037360;28;20498;-75
2023/05/20 12:25:17;;;;;;;;;;;24.40;60.30;;;;;;5055353;28;20017;-75
2023/05/20 12:27:47;;;;;;;4.03;0.20;;;24.90;58.10;;;;;;5054912;28;19948;-74
2023/05/20 12:30:17;;;;;;;0.52;0.00;;;24.90;59.00;;;;;;5054859;28;20059;-75
2023/05/20 12:32:45;;;;;;;0.05;0.00;;;24.80;59.70;;;;;;5055141;28;20028;-75
2023/05/20 12:35:11;;;;;;;0.57;0.00;;;24.60;57.50;;;;;;5054690;28;20024;-74
2023/05/20 12:37:38;;;;;;;2.15;0.17;;;24.60;58.00;;;;;;5054777;28;20107;-74
2023/05/20 12:40:07;;;;;;;1.85;0.17;;;24.60;58.40;;;;;;5054770;28;20021;-75
2023/05/20 12:42:40;;;;;;;0.60;0.10;;;24.30;58.00;;;;;;5036881;28;20162;-75
2023/05/20 12:45:07;;;;;;;0.00;0.00;;;23.90;58.30;;;;;;5036707;28;20392;-74
2023/05/20 12:47:33;;;;;;;2.85;0.38;;;;;;;;;;5054875;28;20481;-74